Time;durP1;ratioP1;P1;durP2;ratioP2;P2;SDS_P1;SDS_P2;PMS_P1;PMS_P2;Temp;Humidity;BMP_temperature;BMP_pressure;BME280_temperature;BME280_humidity;BME280_pressure;Samples;Min_cycle;Max_cycle;Signal;HPM_P1;HPM_P2
2024/01/21 00:00:52;;;;;;;7.88;3.47;;;;;;;;;;5030606;28;20030;-80
2024/01/21 00:03:18;;;;;;;4.53;1.95;;;;;;;;;;5023656;28;20033;-80
2024/01/21 00:05:44;;;;;;;6.20;2.20;;;;;;;;;;5022189;28;20064;-80
2024/01/21 00:08:10;;;;;;;15.70;2.92;;;;;;;;;;5021943;28;20037;-80
2024/01/21 00:10:36;;;;;;;7.75;3.15;;;;;;;;;;5030806;28;20033;-80
2024/01/21 00:13:02;;;;;;;5.82;2.25;;;;;;;;;;5029799;28;20038;-80
2024/01/21 00:15:28;;;;;;;4.30;1.90;;;;;;;;;;5022243;28;20348;-80
2024/01/21 00:17:54;;;;;;;5.75;3.08;;;;;;;;;;5021210;28;20042;-80
2024/01/21 00:20:20;;;;;;;5.28;1.77;;;;;;;;;;5027088;28;20100;-80
2024/01/21 00:22:46;;;;;;;11.98;3.75;;;;;;;;;;5029071;28;20030;-80
2024/01/21 00:25:12;;;;;;;32.85;9.63;;;;;;;;;;5026954;28;20071;-80
2024/01/21 00:27:38;;;;;;;32.75;10.52;;;;;;;;;;5018250;28;20053;-80
2024/01/21 00:30:04;;;;;;;33.10;12.82;;;;;;;;;;5019853;28;20084;-80
2024/01/21 00:32:30;;;;;;;36.20;8.52;;;;;;;;;;5024568;28;20034;-80
2024/01/21 00:34:56;;;;;;;20.67;7.82;;;;;;;;;;5011933;28;20087;-80
2024/01/21 00:37:22;;;;;;;24.55;9.13;;;;;;;;;;5022324;28;20038;-80
2024/01/21 00:39:48;;;;;;;14.32;7.80;;;;;;;;;;5025136;28;20064;-80
2024/01/21 00:42:14;;;;;;;13.73;6.10;;;;;;;;;;5030358;28;20754;-80
2024/01/21 00:44:40;;;;;;;16.70;7.95;;;;;;;;;;5029792;28;20029;-80
2024/01/21 00:47:06;;;;;;;20.98;9.73;;;;;;;;;;5028763;28;20025;-80
2024/01/21 00:49:33;;;;;;;11.95;8.23;;;;;;;;;;5028738;28;20471;-80
2024/01/21 00:51:59;;;;;;;25.05;6.55;;;;;;;;;;5028356;28;20028;-80
2024/01/21 00:54:25;;;;;;;19.73;5.00;;;;;;;;;;5029688;28;20052;-80
2024/01/21 00:56:51;;;;;;;11.85;4.38;;;;;;;;;;5021942;28;20037;-80
2024/01/21 00:59:17;;;;;;;15.70;7.25;;;;;;;;;;5024636;28;20038;-80
2024/01/21 01:01:43;;;;;;;10.93;6.80;;;;;;;;;;5027053;28;20049;-80
2024/01/21 01:04:09;;;;;;;8.82;4.30;;;;;;;;;;5025857;28;20037;-79
2024/01/21 01:06:35;;;;;;;21.13;5.72;;;;;;;;;;5028670;28;20036;-79
2024/01/21 01:09:01;;;;;;;12.00;4.97;;;;;;;;;;5029831;28;20065;-80
2024/01/21 01:11:27;;;;;;;9.18;4.35;;;;;;;;;;5027539;28;20068;-80
2024/01/21 01:13:54;;;;;;;6.97;3.95;;;;;;;;;;5019463;28;20137;-80
2024/01/21 01:16:20;;;;;;;7.80;4.50;;;;;;;;;;5029195;28;20128;-80
2024/01/21 01:18:46;;;;;;;12.02;3.95;;;;;;;;;;5021185;28;20033;-80
2024/01/21 01:21:12;;;;;;;12.55;3.03;;;;;;;;;;5026434;28;20362;-79
2024/01/21 01:23:38;;;;;;;13.38;4.28;;;;;;;;;;5023834;28;20080;-80
2024/01/21 01:26:04;;;;;;;5.97;3.20;;;;;;;;;;5015718;28;20497;-80
2024/01/21 01:28:31;;;;;;;7.60;3.00;;;;;;;;;;5010665;28;20062;-80
2024/01/21 01:30:57;;;;;;;6.53;2.70;;;;;;;;;;5026473;28;20437;-80
2024/01/21 01:33:24;;;;;;;7.22;2.95;;;;;;;;;;5016749;28;20116;-80
2024/01/21 01:35:50;;;;;;;10.05;3.92;;;;;;;;;;5023954;28;20021;-80
2024/01/21 01:38:16;;;;;;;4.82;2.92;;;;;;;;;;5024457;28;20436;-80
2024/01/21 01:40:42;;;;;;;25.45;4.95;;;;;;;;;;5032884;28;20027;-80
2024/01/21 01:43:09;;;;;;;7.10;3.20;;;;;;;;;;5030541;28;20035;-80
2024/01/21 01:45:35;;;;;;;9.13;3.65;;;;;;;;;;5032644;28;21073;-80
2024/01/21 01:48:02;;;;;;;7.03;3.72;;;;;;;;;;5019609;28;20117;-80
2024/01/21 01:50:29;;;;;;;11.57;4.80;;;;;;;;;;5030699;28;20041;-81
2024/01/21 01:52:55;;;;;;;5.97;3.33;;;;;;;;;;5030666;28;20037;-80
2024/01/21 01:55:21;;;;;;;18.50;5.75;;;;;;;;;;5033460;28;20049;-80
2024/01/21 01:57:48;;;;;;;17.58;5.97;;;;;;;;;;5033570;28;20855;-80
2024/01/21 02:00:14;;;;;;;5.13;3.00;;;;;;;;;;5033275;28;20033;-80
2024/01/21 02:02:43;;;;;;;7.20;2.40;;;;;;;;;;5032038;28;20033;-80
2024/01/21 02:05:10;;;;;;;5.22;2.50;;;;;;;;;;5030466;28;20391;-80
2024/01/21 02:07:36;;;;;;;11.55;3.75;;;;;;;;;;5027455;28;20056;-80
2024/01/21 02:10:03;;;;;;;7.22;3.05;;;;;;;;;;5027780;28;20034;-80
2024/01/21 02:12:29;;;;;;;13.55;5.00;;;;;;;;;;5029744;28;20040;-80
2024/01/21 02:14:55;;;;;;;26.38;6.05;;;;;;;;;;5030549;28;20049;-80
2024/01/21 02:17:21;;;;;;;10.63;6.10;;;;;;;;;;5032897;28;20037;-80
2024/01/21 02:19:47;;;;;;;16.60;4.32;;;;;;;;;;5022933;28;20057;-80
2024/01/21 02:22:13;;;;;;;12.43;3.40;;;;;;;;;;5032204;28;20064;-80
2024/01/21 02:24:39;;;;;;;5.50;3.58;;;;;;;;;;5020513;28;20065;-80
2024/01/21 02:27:05;;;;;;;7.05;4.15;;;;;;;;;;5032299;28;20072;-80
2024/01/21 02:29:31;;;;;;;9.25;3.78;;;;;;;;;;5027456;28;20440;-80
2024/01/21 02:31:58;;;;;;;7.63;3.28;;;;;;;;;;5018114;28;20026;-80
2024/01/21 02:34:25;;;;;;;7.00;2.97;;;;;;;;;;5020473;28;20060;-80
2024/01/21 02:36:51;;;;;;;9.48;3.25;;;;;;;;;;5030553;28;20033;-80
2024/01/21 02:39:17;;;;;;;7.93;3.10;;;;;;;;;;5025994;28;20180;-79
2024/01/21 02:41:43;;;;;;;14.80;3.75;;;;;;;;;;5032917;28;20041;-80
2024/01/21 02:44:09;;;;;;;5.18;2.90;;;;;;;;;;5025784;28;20030;-80
2024/01/21 02:46:35;;;;;;;7.05;3.03;;;;;;;;;;5030788;28;20029;-80
2024/01/21 02:49:01;;;;;;;19.33;3.78;;;;;;;;;;5025757;28;20578;-80
2024/01/21 02:51:27;;;;;;;3.08;2.58;;;;;;;;;;5025425;28;20030;-80
2024/01/21 02:53:53;;;;;;;8.05;2.17;;;;;;;;;;5017826;28;20037;-80
2024/01/21 02:56:20;;;;;;;6.00;2.70;;;;;;;;;;5022346;28;20818;-80
2024/01/21 02:58:46;;;;;;;9.52;2.38;;;;;;;;;;5021195;28;20030;-80
2024/01/21 03:01:12;;;;;;;3.40;1.85;;;;;;;;;;5027129;28;20402;-80
2024/01/21 03:03:38;;;;;;;6.07;2.38;;;;;;;;;;5023145;28;20038;-80
2024/01/21 03:06:04;;;;;;;5.10;2.80;;;;;;;;;;5030701;28;20117;-80
2024/01/21 03:08:30;;;;;;;8.73;3.80;;;;;;;;;;5029604;28;20747;-80
2024/01/21 03:10:56;;;;;;;3.17;1.40;;;;;;;;;;5030482;28;20100;-80
2024/01/21 03:13:23;;;;;;;5.03;2.47;;;;;;;;;;5029994;28;20357;-80
2024/01/21 03:15:49;;;;;;;2.53;1.67;;;;;;;;;;5030832;28;20045;-80
2024/01/21 03:18:15;;;;;;;3.95;2.58;;;;;;;;;;5031251;28;20122;-80
2024/01/21 03:20:41;;;;;;;6.15;2.38;;;;;;;;;;5020791;28;20040;-80
2024/01/21 03:23:07;;;;;;;4.20;1.98;;;;;;;;;;5032258;28;20147;-80
2024/01/21 03:25:33;;;;;;;2.75;1.45;;;;;;;;;;5031350;28;20033;-80
2024/01/21 03:27:58;;;;;;;2.88;1.98;;;;;;;;;;5032041;28;20029;-80
2024/01/21 03:30:26;;;;;;;13.05;2.35;;;;;;;;;;5029299;28;20076;-80
2024/01/21 03:32:52;;;;;;;10.73;1.77;;;;;;;;;;5029144;28;20120;-80
2024/01/21 03:35:18;;;;;;;7.72;2.85;;;;;;;;;;5024167;28;20108;-80
2024/01/21 03:37:44;;;;;;;8.25;3.95;;;;;;;;;;5017785;28;20036;-80
2024/01/21 03:40:10;;;;;;;9.27;3.28;;;;;;;;;;5022777;28;20488;-80
2024/01/21 03:42:36;;;;;;;4.03;1.77;;;;;;;;;;5023300;28;20055;-80
2024/01/21 03:45:02;;;;;;;4.85;2.67;;;;;;;;;;5018389;28;20072;-80
2024/01/21 03:47:28;;;;;;;10.18;3.85;;;;;;;;;;5021958;28;20033;-80
2024/01/21 03:49:54;;;;;;;15.32;4.50;;;;;;;;;;5020941;28;20048;-79
2024/01/21 03:52:20;;;;;;;13.15;3.33;;;;;;;;;;5018877;28;20108;-80
2024/01/21 03:54:47;;;;;;;9.48;2.33;;;;;;;;;;5015444;28;20552;-80
2024/01/21 03:57:13;;;;;;;4.32;1.90;;;;;;;;;;5026708;28;20033;-80
2024/01/21 03:59:39;;;;;;;3.30;2.13;;;;;;;;;;5030241;28;20418;-80
2024/01/21 04:02:05;;;;;;;4.07;2.05;;;;;;;;;;5030702;28;20470;-80
2024/01/21 04:04:31;;;;;;;7.10;2.17;;;;;;;;;;5026535;28;20061;-80
2024/01/21 04:06:57;;;;;;;3.90;2.47;;;;;;;;;;5013444;28;20029;-80
2024/01/21 04:09:23;;;;;;;2.45;1.60;;;;;;;;;;5017214;28;20038;-80
2024/01/21 04:11:52;;;;;;;5.20;2.53;;;;;;;;;;5028037;28;20053;-80
2024/01/21 04:14:18;;;;;;;11.93;3.42;;;;;;;;;;5021048;28;20041;-80
2024/01/21 04:16:44;;;;;;;5.32;2.97;;;;;;;;;;5029121;28;20435;-80
2024/01/21 04:19:13;;;;;;;7.57;1.67;;;;;;;;;;5028556;28;20049;-80
2024/01/21 04:21:39;;;;;;;5.70;2.65;;;;;;;;;;5024038;28;20407;-80
2024/01/21 04:24:05;;;;;;;4.68;2.38;;;;;;;;;;5029872;28;20064;-80
2024/01/21 04:26:31;;;;;;;3.08;2.00;;;;;;;;;;5030745;28;20554;-80
2024/01/21 04:28:57;;;;;;;11.38;2.60;;;;;;;;;;5024718;28;20364;-80
2024/01/21 04:31:23;;;;;;;6.22;1.98;;;;;;;;;;5030638;28;20052;-80
2024/01/21 04:33:49;;;;;;;4.60;2.63;;;;;;;;;;5026340;28;20475;-80
2024/01/21 04:36:18;;;;;;;6.88;2.83;;;;;;;;;;5030678;28;20857;-80
2024/01/21 04:38:44;;;;;;;10.15;3.30;;;;;;;;;;5028824;28;20072;-80
2024/01/21 04:41:10;;;;;;;6.63;3.05;;;;;;;;;;5030307;28;20501;-80
2024/01/21 04:43:36;;;;;;;19.80;2.28;;;;;;;;;;5019253;28;20065;-80
2024/01/21 04:46:02;;;;;;;4.22;2.28;;;;;;;;;;5028634;28;20033;-80
2024/01/21 04:48:28;;;;;;;4.90;1.80;;;;;;;;;;5029158;28;20037;-80
2024/01/21 04:50:54;;;;;;;5.20;2.17;;;;;;;;;;5030436;28;20053;-80
2024/01/21 04:53:20;;;;;;;3.90;2.80;;;;;;;;;;5020406;28;20117;-80
2024/01/21 04:55:46;;;;;;;5.13;2.58;;;;;;;;;;5030186;28;20422;-80
2024/01/21 04:58:12;;;;;;;7.20;2.67;;;;;;;;;;5022505;28;20137;-80
2024/01/21 05:00:38;;;;;;;13.20;3.65;;;;;;;;;;5022831;28;20034;-80
2024/01/21 05:03:04;;;;;;;27.05;5.65;;;;;;;;;;5026341;28;20462;-80
2024/01/21 05:05:30;;;;;;;10.00;3.08;;;;;;;;;;5023514;28;20034;-80
2024/01/21 05:07:56;;;;;;;8.80;3.72;;;;;;;;;;5029334;28;20033;-80
2024/01/21 05:10:23;;;;;;;4.22;2.15;;;;;;;;;;5028616;28;20036;-80
2024/01/21 05:12:49;;;;;;;3.90;1.70;;;;;;;;;;5025331;28;20038;-80
2024/01/21 05:15:15;;;;;;;4.82;2.42;;;;;;;;;;5027755;28;20064;-80
2024/01/21 05:17:41;;;;;;;7.38;2.95;;;;;;;;;;5033275;28;20037;-80
2024/01/21 05:20:08;;;;;;;3.40;2.03;;;;;;;;;;5028030;28;20029;-80
2024/01/21 05:22:34;;;;;;;5.18;2.00;;;;;;;;;;5022906;28;20058;-80
2024/01/21 05:25:00;;;;;;;6.50;3.05;;;;;;;;;;5030733;28;20086;-80
2024/01/21 05:27:26;;;;;;;5.53;2.28;;;;;;;;;;5034716;28;20116;-80
2024/01/21 05:29:52;;;;;;;3.63;1.10;;;;;;;;;;5027484;28;20026;-80
2024/01/21 05:32:18;;;;;;;3.67;2.15;;;;;;;;;;5033239;28;20044;-80
2024/01/21 05:34:44;;;;;;;7.35;4.30;;;;;;;;;;5018990;28;20034;-80
2024/01/21 05:37:10;;;;;;;8.30;2.47;;;;;;;;;;5016533;28;20040;-80
2024/01/21 05:39:36;;;;;;;6.38;2.50;;;;;;;;;;5014385;28;20045;-79
2024/01/21 05:42:07;;;;;;;6.10;2.15;;;;;;;;;;5031558;28;20064;-80
2024/01/21 05:44:33;;;;;;;5.38;2.20;;;;;;;;;;5028324;28;20034;-80
2024/01/21 05:46:59;;;;;;;7.45;1.60;;;;;;;;;;5027908;28;20029;-80
2024/01/21 05:49:25;;;;;;;2.03;0.90;;;;;;;;;;5021624;28;20099;-80
2024/01/21 05:51:52;;;;;;;3.85;1.88;;;;;;;;;;5027337;28;20028;-80
2024/01/21 05:54:18;;;;;;;4.45;1.05;;;;;;;;;;5029069;28;20033;-80
2024/01/21 05:56:44;;;;;;;1.83;1.30;;;;;;;;;;5019735;28;20034;-80
2024/01/21 05:59:12;;;;;;;4.55;1.40;;;;;;;;;;5031050;28;20041;-80
2024/01/21 06:01:38;;;;;;;5.63;1.50;;;;;;;;;;5031529;28;20021;-80
2024/01/21 06:04:04;;;;;;;3.97;1.40;;;;;;;;;;5023157;28;20030;-79
2024/01/21 06:06:30;;;;;;;7.50;2.28;;;;;;;;;;5027519;28;20030;-80
2024/01/21 06:08:56;;;;;;;4.95;2.35;;;;;;;;;;5017616;28;20044;-80
2024/01/21 06:11:22;;;;;;;7.82;1.40;;;;;;;;;;5023736;28;20460;-80
2024/01/21 06:13:48;;;;;;;4.32;2.45;;;;;;;;;;5033236;28;20052;-80
2024/01/21 06:16:18;;;;;;;5.53;2.03;;;;;;;;;;5031384;28;20092;-80
2024/01/21 06:18:44;;;;;;;6.13;2.58;;;;;;;;;;5032555;28;20033;-79
2024/01/21 06:21:10;;;;;;;4.95;2.65;;;;;;;;;;5017003;28;20025;-80
2024/01/21 06:23:36;;;;;;;4.97;2.30;;;;;;;;;;5026559;28;20050;-80
2024/01/21 06:26:02;;;;;;;19.75;2.65;;;;;;;;;;5025968;28;20029;-80
2024/01/21 06:28:29;;;;;;;2.78;1.15;;;;;;;;;;5031737;28;20112;-80
2024/01/21 06:30:55;;;;;;;2.35;1.17;;;;;;;;;;5028203;28;20034;-80
2024/01/21 06:33:21;;;;;;;5.57;1.33;;;;;;;;;;5027878;28;20683;-80
2024/01/21 06:35:47;;;;;;;3.47;1.40;;;;;;;;;;5023780;28;20037;-80
2024/01/21 06:38:13;;;;;;;2.20;1.55;;;;;;;;;;5031134;28;20544;-80
2024/01/21 06:40:39;;;;;;;1.50;0.75;;;;;;;;;;5031916;28;20036;-80
2024/01/21 06:43:05;;;;;;;6.40;2.00;;;;;;;;;;5027902;28;20427;-80
2024/01/21 06:45:31;;;;;;;4.10;1.40;;;;;;;;;;5031614;28;20100;-80
2024/01/21 06:47:57;;;;;;;8.40;2.88;;;;;;;;;;5031076;28;20580;-80
2024/01/21 06:50:23;;;;;;;8.25;3.05;;;;;;;;;;5027568;28;20056;-80
2024/01/21 06:52:49;;;;;;;14.23;2.28;;;;;;;;;;5027596;28;20057;-80
2024/01/21 06:55:15;;;;;;;5.10;2.00;;;;;;;;;;5031235;28;20041;-80
2024/01/21 06:57:41;;;;;;;5.03;2.33;;;;;;;;;;5025973;28;20030;-80
2024/01/21 07:00:07;;;;;;;5.93;2.13;;;;;;;;;;5031669;28;20998;-80
2024/01/21 07:02:33;;;;;;;4.38;2.10;;;;;;;;;;5024420;28;20367;-80
2024/01/21 07:04:59;;;;;;;5.10;2.08;;;;;;;;;;5023934;28;20441;-80
2024/01/21 07:07:25;;;;;;;5.88;2.72;;;;;;;;;;5027426;28;20124;-80
2024/01/21 07:09:51;;;;;;;6.13;1.70;;;;;;;;;;5029536;28;20040;-80
2024/01/21 07:12:17;;;;;;;6.32;2.30;;;;;;;;;;5030553;28;20115;-80
2024/01/21 07:14:43;;;;;;;3.90;1.77;;;;;;;;;;5027437;28;20073;-80
2024/01/21 07:17:10;;;;;;;14.10;3.72;;;;;;;;;;5011545;28;20033;-80
2024/01/21 07:19:36;;;;;;;3.30;1.33;;;;;;;;;;5019479;28;20025;-79
2024/01/21 07:22:02;;;;;;;3.95;1.40;;;;;;;;;;5020398;28;20029;-80
2024/01/21 07:24:28;;;;;;;5.10;2.28;;;;;;;;;;5029821;28;20087;-80
2024/01/21 07:26:54;;;;;;;2.70;1.02;;;;;;;;;;5031672;28;20037;-80
2024/01/21 07:29:20;;;;;;;2.78;1.17;;;;;;;;;;5025238;28;20048;-80
2024/01/21 07:31:46;;;;;;;3.55;1.20;;;;;;;;;;5014680;28;20092;-80
2024/01/21 07:34:13;;;;;;;8.18;2.58;;;;;;;;;;5028675;28;20112;-80
2024/01/21 07:36:39;;;;;;;26.42;8.07;;;;;;;;;;5022496;28;20408;-81
2024/01/21 07:39:05;;;;;;;23.13;9.50;;;;;;;;;;5030019;28;20116;-80
2024/01/21 07:41:32;;;;;;;10.57;5.38;;;;;;;;;;5030140;28;20067;-80
2024/01/21 07:43:59;;;;;;;4.72;2.35;;;;;;;;;;5029395;28;20498;-80
2024/01/21 07:46:25;;;;;;;15.40;3.75;;;;;;;;;;5030913;28;20498;-80
2024/01/21 07:48:51;;;;;;;14.98;2.55;;;;;;;;;;5029377;28;20029;-80
2024/01/21 07:51:18;;;;;;;12.68;3.40;;;;;;;;;;5020677;28;20069;-80
2024/01/21 07:53:44;;;;;;;6.63;2.10;;;;;;;;;;5025398;28;20034;-80
2024/01/21 07:56:10;;;;;;;4.65;1.98;;;;;;;;;;5012115;28;20026;-80
2024/01/21 07:58:36;;;;;;;3.25;2.10;;;;;;;;;;5026505;28;20675;-80
2024/01/21 08:01:03;;;;;;;2.05;1.73;;;;;;;;;;5030016;28;20053;-80
2024/01/21 08:03:29;;;;;;;2.05;1.13;;;;;;;;;;5025241;28;20025;-80
2024/01/21 08:05:56;;;;;;;3.35;0.60;;;;;;;;;;5030622;28;20502;-80
2024/01/21 08:08:22;;;;;;;6.88;1.23;;;;;;;;;;5029595;28;20025;-80
2024/01/21 08:10:48;;;;;;;5.93;2.15;;;;;;;;;;5021575;28;20037;-80
2024/01/21 08:13:14;;;;;;;1.90;0.93;;;;;;;;;;5016797;28;20052;-80
2024/01/21 08:15:40;;;;;;;3.05;1.42;;;;;;;;;;5030217;28;20053;-80
2024/01/21 08:18:07;;;;;;;4.13;2.35;;;;;;;;;;5031036;28;20083;-80
2024/01/21 08:20:33;;;;;;;4.32;1.17;;;;;;;;;;5023264;28;20029;-80
2024/01/21 08:23:00;;;;;;;4.63;1.38;;;;;;;;;;5026674;28;20034;-80
2024/01/21 08:25:26;;;;;;;5.38;2.10;;;;;;;;;;5026938;28;20045;-80
2024/01/21 08:27:53;;;;;;;0.43;0.13;;;;;;;;;;5028431;28;20073;-80
2024/01/21 08:30:19;;;;;;;0.73;0.68;;;;;;;;;;5019934;28;20386;-80
2024/01/21 08:32:45;;;;;;;0.08;0.00;;;;;;;;;;5031897;28;20063;-80
2024/01/21 08:35:11;;;;;;;0.38;0.13;;;;;;;;;;5030336;28;20108;-80
2024/01/21 08:37:37;;;;;;;0.98;0.60;;;;;;;;;;5030887;28;20037;-80
2024/01/21 08:40:04;;;;;;;1.20;0.45;;;;;;;;;;5028907;28;20068;-80
2024/01/21 08:42:30;;;;;;;1.75;0.85;;;;;;;;;;5031569;28;20034;-80
2024/01/21 08:44:56;;;;;;;0.30;0.30;;;;;;;;;;5025320;28;20038;-80
2024/01/21 08:47:22;;;;;;;1.20;0.32;;;;;;;;;;5024930;28;20036;-80
2024/01/21 08:49:48;;;;;;;1.25;0.30;;;;;;;;;;5034547;28;20033;-80
2024/01/21 08:52:14;;;;;;;0.88;0.55;;;;;;;;;;5026820;28;20037;-80
2024/01/21 08:54:40;;;;;;;6.28;3.00;;;;;;;;;;5034293;28;20033;-80
2024/01/21 08:57:06;;;;;;;7.82;3.05;;;;;;;;;;5031627;28;20079;-81
2024/01/21 08:59:32;;;;;;;2.45;0.52;;;;;;;;;;5029220;28;20055;-80
2024/01/21 09:01:58;;;;;;;0.80;0.30;;;;;;;;;;5031435;28;20026;-80
2024/01/21 09:04:24;;;;;;;2.38;0.93;;;;;;;;;;5035333;28;20095;-80
2024/01/21 09:06:50;;;;;;;2.22;1.05;;;;;;;;;;5033681;28;20036;-80
2024/01/21 09:09:16;;;;;;;2.20;1.02;;;;;;;;;;5015138;28;20805;-80
2024/01/21 09:11:42;;;;;;;0.75;0.43;;;;;;;;;;5022330;28;20030;-80
2024/01/21 09:14:08;;;;;;;1.38;1.00;;;;;;;;;;5014739;28;20041;-80
2024/01/21 09:16:34;;;;;;;6.38;1.48;;;;;;;;;;5029124;28;20530;-80
2024/01/21 09:19:00;;;;;;;4.70;2.40;;;;;;;;;;5025453;28;20104;-80
2024/01/21 09:21:27;;;;;;;4.53;1.95;;;;;;;;;;5029627;28;20038;-80
2024/01/21 09:23:55;;;;;;;3.53;1.83;;;;;;;;;;5029009;28;20056;-80
2024/01/21 09:26:21;;;;;;;3.20;0.75;;;;;;;;;;5021939;28;20021;-80
2024/01/21 09:28:47;;;;;;;1.73;0.38;;;;;;;;;;5014011;28;20022;-80
2024/01/21 09:31:13;;;;;;;1.10;0.85;;;;;;;;;;5022285;28;20055;-80
2024/01/21 09:33:39;;;;;;;0.32;0.32;;;;;;;;;;5033349;28;20018;-80
2024/01/21 09:36:05;;;;;;;0.25;0.20;;;;;;;;;;5031615;28;20022;-80
2024/01/21 09:38:31;;;;;;;1.00;0.50;;;;;;;;;;5028220;28;20044;-80
2024/01/21 09:41:00;;;;;;;1.73;0.77;;;;;;;;;;5032149;28;20025;-80
2024/01/21 09:43:28;;;;;;;3.15;1.38;;;;;;;;;;5030648;28;20638;-81
2024/01/21 09:45:54;;;;;;;4.30;1.42;;;;;;;;;;5031541;28;20116;-81
2024/01/21 09:48:20;;;;;;;2.13;0.90;;;;;;;;;;5027080;28;20034;-81
2024/01/21 09:50:47;;;;;;;1.80;0.80;;;;;;;;;;5020092;28;20084;-81
2024/01/21 09:53:13;;;;;;;3.75;2.17;;;;;;;;;;5020060;28;20033;-81
2024/01/21 09:55:39;;;;;;;5.43;2.25;;;;;;;;;;5026314;28;20042;-81
2024/01/21 09:58:07;;;;;;;5.03;2.00;;;;;;;;;;5018864;28;20827;-81
2024/01/21 10:00:33;;;;;;;2.45;1.15;;;;;;;;;;5014133;28;20037;-81
2024/01/21 10:02:59;;;;;;;5.43;1.35;;;;;;;;;;5031112;28;20361;-81
2024/01/21 10:05:25;;;;;;;4.15;0.88;;;;;;;;;;5020016;28;20052;-81
2024/01/21 10:07:51;;;;;;;3.40;0.90;;;;;;;;;;5032166;28;20078;-81
2024/01/21 10:10:18;;;;;;;5.10;0.90;;;;;;;;;;5032294;28;20036;-81
2024/01/21 10:12:44;;;;;;;12.32;1.25;;;;;;;;;;5024105;28;20032;-81
2024/01/21 10:15:13;;;;;;;1.63;0.60;;;;;;;;;;5014567;28;20054;-81
2024/01/21 10:17:39;;;;;;;3.78;1.20;;;;;;;;;;5027422;28;20025;-81
2024/01/21 10:20:09;;;;;;;1.85;1.27;;;;;;;;;;5022622;28;20041;-81
2024/01/21 10:22:37;;;;;;;1.20;0.43;;;;;;;;;;5031564;28;20034;-81
2024/01/21 10:25:03;;;;;;;1.52;0.98;;;;;;;;;;5031880;28;20033;-81
2024/01/21 10:27:29;;;;;;;1.17;0.45;;;;;;;;;;5023687;28;20112;-81
2024/01/21 10:29:57;;;;;;;1.70;0.95;;;;;;;;;;5028790;28;20033;-81
2024/01/21 10:32:23;;;;;;;2.72;0.73;;;;;;;;;;5030216;28;20099;-81
2024/01/21 10:34:50;;;;;;;1.35;0.57;;;;;;;;;;5025039;28;20116;-81
2024/01/21 10:37:17;;;;;;;2.13;1.40;;;;;;;;;;5029836;28;20105;-81
2024/01/21 10:39:47;;;;;;;0.98;0.47;;;;;;;;;;5031481;28;20459;-81
2024/01/21 10:42:16;;;;;;;1.30;0.75;;;;;;;;;;5036176;28;20117;-81
2024/01/21 10:44:43;;;;;;;1.27;0.82;;;;;;;;;;5023438;28;20029;-81
2024/01/21 10:47:09;;;;;;;3.80;1.10;;;;;;;;;;5031134;28;20044;-81
2024/01/21 10:49:36;;;;;;;3.53;1.85;;;;;;;;;;5027483;28;20543;-81
2024/01/21 10:52:02;;;;;;;2.17;0.75;;;;;;;;;;5026264;28;20041;-81
2024/01/21 10:54:29;;;;;;;4.93;1.67;;;;;;;;;;5024346;28;20062;-81
2024/01/21 10:56:55;;;;;;;5.43;1.73;;;;;;;;;;5024787;28;20455;-81
2024/01/21 10:59:21;;;;;;;2.63;1.50;;;;;;;;;;5030418;28;20108;-81
2024/01/21 11:01:48;;;;;;;2.10;0.40;;;;;;;;;;5025870;28;20033;-81
2024/01/21 11:04:14;;;;;;;1.35;0.60;;;;;;;;;;5030215;28;20018;-81
2024/01/21 11:06:42;;;;;;;4.50;1.55;;;;;;;;;;5026990;28;20033;-81
2024/01/21 11:09:09;;;;;;;0.57;0.50;;;;;;;;;;5019862;28;20789;-81
2024/01/21 11:11:41;;;;;;;7.95;0.90;;;;;;;;;;5030140;28;20060;-81
2024/01/21 11:14:27;;;;;;;0.57;0.30;;;;;;;;;;5029617;28;20029;-81
2024/01/21 11:16:57;;;;;;;1.38;0.57;;;;;;;;;;5028766;28;20057;-81
2024/01/21 11:19:24;;;;;;;0.57;0.40;;;;;;;;;;5030993;28;20550;-81
2024/01/21 11:21:54;;;;;;;1.08;0.50;;;;;;;;;;5029434;28;20029;-81
2024/01/21 11:24:20;;;;;;;1.25;0.75;;;;;;;;;;5020336;28;20029;-81
2024/01/21 11:26:47;;;;;;;0.88;0.47;;;;;;;;;;5020710;28;20050;-81
2024/01/21 11:29:33;;;;;;;0.68;0.50;;;;;;;;;;5024136;28;20080;-81
2024/01/21 11:32:00;;;;;;;1.17;1.08;;;;;;;;;;5020835;28;20037;-81
2024/01/21 11:34:29;;;;;;;0.73;0.50;;;;;;;;;;5028153;28;20656;-81
2024/01/21 11:36:55;;;;;;;2.00;0.68;;;;;;;;;;5028779;28;20108;-81
2024/01/21 11:39:21;;;;;;;1.80;1.20;;;;;;;;;;5022595;28;20084;-81
2024/01/21 11:41:48;;;;;;;2.85;0.95;;;;;;;;;;5018775;28;20045;-81
2024/01/21 11:44:27;;;;;;;1.48;0.80;;;;;;;;;;5029885;28;20647;-81
2024/01/21 11:46:54;;;;;;;2.58;1.35;;;;;;;;;;5015360;28;20042;-82
2024/01/21 11:49:20;;;;;;;1.35;0.82;;;;;;;;;;5022629;28;20132;-82
2024/01/21 11:51:47;;;;;;;0.75;0.38;;;;;;;;;;5020537;28;20065;-81
2024/01/21 11:54:13;;;;;;;0.90;0.40;;;;;;;;;;5023071;28;20034;-81
2024/01/21 11:56:40;;;;;;;5.93;1.02;;;;;;;;;;5021706;28;20518;-81
2024/01/21 11:59:07;;;;;;;1.13;0.45;;;;;;;;;;5030475;28;20033;-81
2024/01/21 12:01:34;;;;;;;1.38;0.50;;;;;;;;;;5029624;28;20040;-81
2024/01/21 12:04:03;;;;;;;4.68;1.52;;;;;;;;;;5028994;28;20112;-81
2024/01/21 12:06:33;;;;;;;1.75;0.70;;;;;;;;;;5029118;28;20040;-82
2024/01/21 12:09:00;;;;;;;2.67;1.17;;;;;;;;;;5024978;28;20382;-82
2024/01/21 12:11:26;;;;;;;6.22;0.90;;;;;;;;;;5023717;28;20037;-81
2024/01/21 12:13:53;;;;;;;6.82;0.95;;;;;;;;;;5022140;28;20474;-82
2024/01/21 12:16:19;;;;;;;1.88;1.05;;;;;;;;;;5024510;28;20372;-81
2024/01/21 12:18:45;;;;;;;3.00;0.82;;;;;;;;;;5025189;28;20037;-82
2024/01/21 12:21:15;;;;;;;2.10;0.85;;;;;;;;;;5027437;28;20211;-82
2024/01/21 12:23:42;;;;;;;6.35;0.95;;;;;;;;;;5023167;28;20037;-82
2024/01/21 12:26:08;;;;;;;2.95;0.70;;;;;;;;;;5023106;28;20032;-81
2024/01/21 12:28:34;;;;;;;1.55;0.85;;;;;;;;;;5028352;28;20549;-81
2024/01/21 12:31:01;;;;;;;2.17;0.80;;;;;;;;;;5030151;28;20053;-82
2024/01/21 12:33:27;;;;;;;1.90;0.77;;;;;;;;;;5029738;28;20351;-82
2024/01/21 12:35:53;;;;;;;1.70;1.02;;;;;;;;;;5031512;28;20041;-82
2024/01/21 12:38:20;;;;;;;6.80;1.30;;;;;;;;;;5028831;28;20064;-82
2024/01/21 12:40:46;;;;;;;1.08;0.73;;;;;;;;;;5023806;28;20052;-82
2024/01/21 12:43:16;;;;;;;1.52;0.68;;;;;;;;;;5026721;28;20032;-82
2024/01/21 12:45:42;;;;;;;4.55;0.80;;;;;;;;;;5028602;28;20045;-81
2024/01/21 12:48:08;;;;;;;1.95;1.13;;;;;;;;;;5028410;28;20056;-81
2024/01/21 12:50:34;;;;;;;2.78;1.02;;;;;;;;;;5029368;28;20072;-81
2024/01/21 12:53:00;;;;;;;1.77;1.00;;;;;;;;;;5025950;28;20108;-81
2024/01/21 12:55:26;;;;;;;0.77;0.47;;;;;;;;;;5029544;28;20052;-82
2024/01/21 12:57:52;;;;;;;3.42;1.73;;;;;;;;;;5019122;28;20723;-82
2024/01/21 13:00:18;;;;;;;2.83;1.20;;;;;;;;;;5024728;28;20037;-82
2024/01/21 13:02:44;;;;;;;1.55;0.70;;;;;;;;;;5027059;28;20091;-82
2024/01/21 13:05:10;;;;;;;1.20;0.82;;;;;;;;;;5025078;28;20041;-82
2024/01/21 13:07:36;;;;;;;1.95;0.80;;;;;;;;;;5027075;28;20061;-82
2024/01/21 13:10:03;;;;;;;1.55;1.15;;;;;;;;;;5021899;28;20033;-82
2024/01/21 13:12:29;;;;;;;3.25;2.03;;;;;;;;;;5026586;28;20471;-82
2024/01/21 13:14:55;;;;;;;2.92;0.82;;;;;;;;;;5020895;28;20084;-82
2024/01/21 13:17:21;;;;;;;2.63;0.63;;;;;;;;;;5029043;28;20113;-82
2024/01/21 13:19:47;;;;;;;1.20;0.57;;;;;;;;;;5028844;28;20573;-82
2024/01/21 13:22:13;;;;;;;2.75;0.85;;;;;;;;;;5026466;28;20079;-81
2024/01/21 13:24:39;;;;;;;1.50;0.95;;;;;;;;;;5030271;28;20113;-81
2024/01/21 13:27:09;;;;;;;1.08;0.40;;;;;;;;;;5030899;28;20109;-82
2024/01/21 13:32:21;;;;;;;1.23;0.35;;;;;;;;;;5023880;28;20059;-82
2024/01/21 13:34:47;;;;;;;0.68;0.38;;;;;;;;;;5032513;28;20128;-82
2024/01/21 13:37:14;;;;;;;0.55;0.28;;;;;;;;;;5021715;28;20044;-82
2024/01/21 13:39:41;;;;;;;0.40;0.32;;;;;;;;;;5027233;28;20045;-82
2024/01/21 13:42:07;;;;;;;0.50;0.10;;;;;;;;;;5025695;28;20332;-81
2024/01/21 13:44:33;;;;;;;0.50;0.25;;;;;;;;;;5031639;28;20527;-82
2024/01/21 13:46:59;;;;;;;0.55;0.47;;;;;;;;;;5031921;28;20125;-82
2024/01/21 13:49:25;;;;;;;0.22;0.10;;;;;;;;;;5031261;28;20250;-82
2024/01/21 13:51:52;;;;;;;2.95;1.67;;;;;;;;;;5021569;28;20067;-81
2024/01/21 13:54:18;;;;;;;5.93;1.63;;;;;;;;;;5030963;28;20044;-82
2024/01/21 13:56:46;;;;;;;0.60;0.38;;;;;;;;;;5021395;28;20067;-82
2024/01/21 13:59:12;;;;;;;0.98;0.75;;;;;;;;;;5027996;28;20030;-81
2024/01/21 14:01:38;;;;;;;1.38;0.73;;;;;;;;;;5021763;28;20069;-82
2024/01/21 14:04:04;;;;;;;1.10;0.85;;;;;;;;;;5029442;28;20056;-82
2024/01/21 14:06:30;;;;;;;6.50;1.55;;;;;;;;;;5022551;28;20030;-82
2024/01/21 14:08:56;;;;;;;1.40;0.85;;;;;;;;;;5028603;28;20048;-81
2024/01/21 14:11:22;;;;;;;1.80;1.13;;;;;;;;;;5028323;28;20018;-82
2024/01/21 14:13:48;;;;;;;2.83;1.02;;;;;;;;;;5032445;28;20068;-82
2024/01/21 14:16:14;;;;;;;4.88;1.58;;;;;;;;;;5031532;28;20081;-82
2024/01/21 14:18:40;;;;;;;5.13;1.33;;;;;;;;;;5014995;28;20042;-81
2024/01/21 14:21:06;;;;;;;1.27;0.40;;;;;;;;;;5026001;28;20029;-82
2024/01/21 14:23:32;;;;;;;0.63;0.57;;;;;;;;;;5030087;28;20041;-82
2024/01/21 14:26:02;;;;;;;0.95;0.75;;;;;;;;;;5020430;28;20093;-81
2024/01/21 14:28:29;;;;;;;0.75;0.50;;;;;;;;;;5042807;28;20090;-81
2024/01/21 14:30:55;;;;;;;1.45;0.50;;;;;;;;;;5028451;28;20039;-82
2024/01/21 14:33:21;;;;;;;1.90;0.93;;;;;;;;;;5031403;28;20079;-82
2024/01/21 14:35:48;;;;;;;0.63;0.40;;;;;;;;;;5021219;28;20061;-82
2024/01/21 14:38:14;;;;;;;1.05;0.57;;;;;;;;;;5031390;28;20108;-82